createdAt,value
2018-05-08T00:00:32.402Z,1005.31
2018-05-08T00:01:12.762Z,1005.28
2018-05-08T00:01:53.159Z,1005.29
2018-05-08T00:02:33.552Z,1005.25
2018-05-08T00:03:13.983Z,1005.22
2018-05-08T00:03:54.380Z,1005.27
2018-05-08T00:04:34.760Z,1005.26
2018-05-08T00:05:15.228Z,1005.24
2018-05-08T00:05:55.611Z,1005.25
2018-05-08T00:07:53.010Z,1005.24
2018-05-08T00:08:33.421Z,1005.27
2018-05-08T00:09:13.861Z,1005.21
2018-05-08T00:09:54.252Z,1005.23
2018-05-08T00:10:34.641Z,1005.2
2018-05-08T00:11:15.034Z,1005.21
2018-05-08T00:13:32.637Z,1005.21
2018-05-08T00:14:13.081Z,1005.2
2018-05-08T00:14:53.498Z,1005.17
2018-05-08T00:15:33.881Z,1005.18
2018-05-08T00:16:14.313Z,1005.13
2018-05-08T00:16:54.757Z,1005.11
2018-05-08T00:17:35.177Z,1005.11
2018-05-08T00:18:15.531Z,1005.08
2018-05-08T00:18:55.990Z,1005.09
2018-05-08T00:19:36.361Z,1005.08
2018-05-08T00:20:16.731Z,1005.09
2018-05-08T00:20:57.151Z,1005.08
2018-05-08T00:21:37.608Z,1005.1
2018-05-08T00:22:18.048Z,1005.1
2018-05-08T00:24:30.566Z,1005.06
2018-05-08T00:25:10.923Z,1005.06
2018-05-08T00:25:51.346Z,1005.07
2018-05-08T00:26:31.717Z,1005.08
2018-05-08T00:27:12.117Z,1005.09
2018-05-08T00:27:52.523Z,1005.12
2018-05-08T00:28:32.955Z,1005.04
2018-05-08T00:29:13.346Z,1005.09
2018-05-08T00:29:53.787Z,1005.05
2018-05-08T00:30:34.192Z,1005.03
2018-05-08T00:31:14.644Z,1005.07
2018-05-08T00:31:55.022Z,1005.05
2018-05-08T00:32:35.445Z,1005.05
2018-05-08T00:33:15.792Z,1005.07
2018-05-08T00:33:56.220Z,1005.03
2018-05-08T00:34:36.611Z,1005.06
2018-05-08T00:35:16.982Z,1005.01
2018-05-08T00:35:57.436Z,1005.04
2018-05-08T00:36:37.805Z,1005.02
2018-05-08T00:37:18.198Z,1005.01
2018-05-08T00:37:58.595Z,1004.98
2018-05-08T00:38:39.020Z,1004.99
2018-05-08T00:39:19.406Z,1004.93
2018-05-08T00:39:59.846Z,1004.98
2018-05-08T00:40:40.210Z,1004.92
2018-05-08T00:41:20.605Z,1004.92
2018-05-08T00:43:38.310Z,1004.88
2018-05-08T00:44:18.592Z,1004.85
2018-05-08T00:46:11.876Z,1004.79
2018-05-08T00:46:52.182Z,1004.81
2018-05-08T00:47:32.580Z,1004.78
2018-05-08T00:48:13.004Z,1004.76
2018-05-08T00:48:53.394Z,1004.76
2018-05-08T00:49:33.802Z,1004.77
2018-05-08T00:50:14.218Z,1004.72
2018-05-08T00:50:54.644Z,1004.71
2018-05-08T00:51:35.110Z,1004.71
2018-05-08T00:52:15.459Z,1004.71
2018-05-08T00:52:55.930Z,1004.71
2018-05-08T00:53:36.319Z,1004.73
2018-05-08T00:54:16.687Z,1004.7
2018-05-08T00:54:57.091Z,1004.71
2018-05-08T00:55:37.520Z,1004.66
2018-05-08T00:56:17.903Z,1004.72
2018-05-08T00:56:58.298Z,1004.69
2018-05-08T00:57:38.708Z,1004.69
2018-05-08T00:58:19.126Z,1004.69
2018-05-08T00:58:59.508Z,1004.7
2018-05-08T00:59:39.898Z,1004.67
2018-05-08T01:00:20.324Z,1004.7
2018-05-08T01:01:00.688Z,1004.65
2018-05-08T01:01:41.093Z,1004.62
2018-05-08T01:02:21.494Z,1004.66
2018-05-08T01:03:01.892Z,1004.63
2018-05-08T01:03:42.291Z,1004.65
2018-05-08T01:04:22.681Z,1004.61
2018-05-08T01:05:03.292Z,1004.63
2018-05-08T01:05:43.491Z,1004.6
2018-05-08T01:06:23.916Z,1004.63
2018-05-08T01:07:04.304Z,1004.63
2018-05-08T01:07:44.711Z,1004.65
2018-05-08T01:08:25.144Z,1004.66
2018-05-08T01:09:05.504Z,1004.65
2018-05-08T01:09:45.932Z,1004.7
2018-05-08T01:10:26.318Z,1004.68
2018-05-08T01:11:06.742Z,1004.72
2018-05-08T01:11:47.144Z,1004.69
2018-05-08T01:12:27.591Z,1004.71
2018-05-08T01:13:08.017Z,1004.66
2018-05-08T01:13:48.422Z,1004.71
2018-05-08T01:14:28.787Z,1004.7
2018-05-08T01:15:09.213Z,1004.7
2018-05-08T01:15:49.567Z,1004.71
2018-05-08T01:16:29.976Z,1004.69
2018-05-08T01:17:10.341Z,1004.69
2018-05-08T01:17:50.771Z,1004.72
2018-05-08T01:18:31.202Z,1004.74
2018-05-08T01:19:11.597Z,1004.73
2018-05-08T01:19:52.013Z,1004.74
2018-05-08T01:20:32.457Z,1004.76
2018-05-08T01:21:12.866Z,1004.75
2018-05-08T01:21:53.282Z,1004.74
2018-05-08T01:22:33.639Z,1004.74
2018-05-08T01:23:14.083Z,1004.75
2018-05-08T01:23:54.488Z,1004.78
2018-05-08T01:24:34.897Z,1004.8
2018-05-08T01:25:15.284Z,1004.8
2018-05-08T01:25:55.670Z,1004.77
2018-05-08T01:26:36.072Z,1004.78
2018-05-08T01:27:16.499Z,1004.78
2018-05-08T01:27:56.940Z,1004.78
2018-05-08T01:28:37.318Z,1004.75
2018-05-08T01:29:17.747Z,1004.78
2018-05-08T01:29:58.124Z,1004.75
2018-05-08T01:30:38.529Z,1004.77
2018-05-08T01:31:18.972Z,1004.75
2018-05-08T01:31:59.357Z,1004.76
2018-05-08T01:32:39.755Z,1004.74
2018-05-08T01:33:20.158Z,1004.74
2018-05-08T01:34:00.542Z,1004.71
2018-05-08T01:34:40.929Z,1004.66
2018-05-08T01:35:21.341Z,1004.68
2018-05-08T01:36:01.766Z,1004.68
2018-05-08T01:36:42.141Z,1004.65
2018-05-08T01:37:22.556Z,1004.65
2018-05-08T01:38:02.948Z,1004.66
2018-05-08T01:38:43.371Z,1004.65
2018-05-08T01:39:23.767Z,1004.65
2018-05-08T01:40:04.210Z,1004.65
2018-05-08T01:40:44.607Z,1004.63
2018-05-08T01:41:25.032Z,1004.62
2018-05-08T01:42:05.405Z,1004.65
2018-05-08T01:42:45.810Z,1004.66
2018-05-08T01:43:26.265Z,1004.64
2018-05-08T01:44:06.623Z,1004.6
2018-05-08T01:44:47.054Z,1004.61
2018-05-08T01:45:27.459Z,1004.63
2018-05-08T01:46:07.854Z,1004.59
2018-05-08T01:46:48.291Z,1004.59
2018-05-08T01:49:01.598Z,1004.53
2018-05-08T01:49:42.027Z,1004.54
2018-05-08T01:50:22.380Z,1004.5
2018-05-08T01:51:02.789Z,1004.5
2018-05-08T01:51:43.189Z,1004.48
2018-05-08T01:53:55.660Z,1004.46
2018-05-08T01:54:36.068Z,1004.47
2018-05-08T01:55:16.470Z,1004.45
2018-05-08T01:55:56.864Z,1004.48
2018-05-08T01:56:37.263Z,1004.44
2018-05-08T01:57:17.653Z,1004.44
2018-05-08T01:57:58.055Z,1004.44
2018-05-08T01:58:38.474Z,1004.45
2018-05-08T01:59:18.886Z,1004.44
2018-05-08T01:59:59.282Z,1004.46
2018-05-08T02:00:39.712Z,1004.44
2018-05-08T02:01:20.105Z,1004.43
2018-05-08T02:02:00.499Z,1004.45
2018-05-08T02:02:40.954Z,1004.42
2018-05-08T02:03:21.358Z,1004.47
2018-05-08T02:04:01.725Z,1004.45
2018-05-08T02:04:42.151Z,1004.42
2018-05-08T02:06:34.592Z,1004.43
2018-05-08T02:07:15.993Z,1004.41
2018-05-08T02:07:56.368Z,1004.38
2018-05-08T02:08:36.765Z,1004.37
2018-05-08T02:09:17.188Z,1004.4
2018-05-08T02:09:57.574Z,1004.35
2018-05-08T02:10:37.993Z,1004.36
2018-05-08T02:11:18.405Z,1004.37
2018-05-08T02:13:46.075Z,1004.35
2018-05-08T02:16:13.836Z,1004.32
2018-05-08T02:16:54.111Z,1004.39
2018-05-08T02:17:34.515Z,1004.38
2018-05-08T02:18:14.919Z,1004.37
2018-05-08T02:18:55.292Z,1004.36
2018-05-08T02:19:35.695Z,1004.37
2018-05-08T02:20:16.083Z,1004.4
2018-05-08T02:20:56.524Z,1004.38
2018-05-08T02:21:36.963Z,1004.41
2018-05-08T02:22:17.396Z,1004.37
2018-05-08T02:22:57.773Z,1004.39
2018-05-08T02:23:38.205Z,1004.37
2018-05-08T02:24:18.587Z,1004.35
2018-05-08T02:24:59.004Z,1004.36
2018-05-08T02:25:39.391Z,1004.35
2018-05-08T02:26:19.850Z,1004.31
2018-05-08T02:27:00.286Z,1004.3
2018-05-08T02:27:40.702Z,1004.3
2018-05-08T02:28:21.139Z,1004.28
2018-05-08T02:29:01.473Z,1004.26
2018-05-08T02:29:41.901Z,1004.25
2018-05-08T02:30:22.281Z,1004.24
2018-05-08T02:31:02.740Z,1004.23
2018-05-08T02:31:43.122Z,1004.2
2018-05-08T02:32:23.551Z,1004.22
2018-05-08T02:33:03.967Z,1004.19
2018-05-08T02:33:44.375Z,1004.18
2018-05-08T02:34:24.720Z,1004.17
2018-05-08T02:35:05.133Z,1004.2
2018-05-08T02:35:45.613Z,1004.17
2018-05-08T02:36:25.924Z,1004.16
2018-05-08T02:37:06.364Z,1004.17
2018-05-08T02:37:46.807Z,1004.22
2018-05-08T02:38:27.152Z,1004.19
2018-05-08T02:39:07.542Z,1004.2
2018-05-08T02:39:47.910Z,1004.15
2018-05-08T02:40:28.326Z,1004.17
2018-05-08T02:41:08.684Z,1004.19
2018-05-08T02:41:49.062Z,1004.2
2018-05-08T02:42:29.466Z,1004.16
2018-05-08T02:43:09.885Z,1004.17
2018-05-08T02:43:50.292Z,1004.17
2018-05-08T02:44:30.789Z,1004.16
2018-05-08T02:45:11.136Z,1004.18
2018-05-08T02:45:51.539Z,1004.11
2018-05-08T02:46:31.976Z,1004.1
2018-05-08T02:47:12.394Z,1004.13
2018-05-08T02:47:52.765Z,1004.1
2018-05-08T02:48:33.182Z,1004.1
2018-05-08T02:49:13.560Z,1004.07
2018-05-08T02:49:53.945Z,1004.09
2018-05-08T02:50:34.349Z,1004.06
2018-05-08T02:51:14.795Z,1004.07
2018-05-08T02:51:55.202Z,1004.08
2018-05-08T02:52:35.685Z,1004.08
2018-05-08T02:53:16.028Z,1004.05
2018-05-08T02:53:56.429Z,1004.08
2018-05-08T02:54:36.842Z,1004.07
2018-05-08T02:55:17.233Z,1004.06
2018-05-08T02:55:57.654Z,1004.06
2018-05-08T02:56:38.032Z,1004.08
2018-05-08T02:57:18.431Z,1004.06
2018-05-08T02:57:58.799Z,1004.05
2018-05-08T02:58:39.188Z,1004.06
2018-05-08T02:59:19.657Z,1004.02
2018-05-08T03:00:00.056Z,1004.01
2018-05-08T03:00:40.439Z,1004.05
2018-05-08T03:01:20.862Z,1004.01
2018-05-08T03:02:01.248Z,1004.03
2018-05-08T03:02:41.656Z,1004.04
2018-05-08T03:03:22.080Z,1004.03
2018-05-08T03:04:02.478Z,1004.05
2018-05-08T03:04:42.924Z,1004.07
2018-05-08T03:05:23.340Z,1004.02
2018-05-08T03:06:03.765Z,1004.02
2018-05-08T03:06:44.121Z,1004.03
2018-05-08T03:07:24.537Z,1004.06
2018-05-08T03:08:04.958Z,1004.05
2018-05-08T03:08:45.379Z,1004.05
2018-05-08T03:09:25.783Z,1004.07
2018-05-08T03:10:06.161Z,1004.05
2018-05-08T03:10:46.592Z,1004.06
2018-05-08T03:11:26.982Z,1004.04
2018-05-08T03:12:07.410Z,1004.04
2018-05-08T03:12:47.782Z,1004.03
2018-05-08T03:13:28.198Z,1004.08
2018-05-08T03:14:08.602Z,1004.05
2018-05-08T03:14:49.023Z,1004.04
2018-05-08T03:15:29.390Z,1004.04
2018-05-08T03:16:09.780Z,1004.07
2018-05-08T03:16:50.221Z,1004.04
2018-05-08T03:17:30.604Z,1004.05
2018-05-08T03:18:11.006Z,1004.05
2018-05-08T03:18:51.400Z,1004.05
2018-05-08T03:19:31.835Z,1004.03
2018-05-08T03:20:12.230Z,1004.03
2018-05-08T03:20:52.630Z,1004.05
2018-05-08T03:21:33.025Z,1004.01
2018-05-08T03:22:13.487Z,1004.03
2018-05-08T03:22:53.811Z,1004.01
2018-05-08T03:23:34.216Z,1004.03
2018-05-08T03:24:14.591Z,1004.04
2018-05-08T03:24:55.002Z,1004.02
2018-05-08T03:25:35.442Z,1004.02
2018-05-08T03:26:15.826Z,1003.98
2018-05-08T03:26:56.249Z,1004.01
2018-05-08T03:27:36.674Z,1004
2018-05-08T03:28:17.079Z,1004.02
2018-05-08T03:28:57.501Z,1004
2018-05-08T03:29:37.923Z,1004.04
2018-05-08T03:31:35.368Z,1004.03
2018-05-08T03:32:15.745Z,1004.05
2018-05-08T03:32:56.109Z,1004.01
2018-05-08T03:33:36.535Z,1004.02
2018-05-08T03:34:16.942Z,1004.03
2018-05-08T03:34:57.372Z,1004.04
2018-05-08T03:35:37.765Z,1004.01
2018-05-08T03:36:18.168Z,1004.01
2018-05-08T03:36:58.561Z,1003.99
2018-05-08T03:37:38.977Z,1003.98
2018-05-08T03:38:19.403Z,1003.99
2018-05-08T03:38:59.824Z,1004
2018-05-08T03:41:17.390Z,1003.99
2018-05-08T03:41:57.792Z,1003.98
2018-05-08T03:42:38.175Z,1004
2018-05-08T03:43:18.568Z,1004
2018-05-08T03:43:58.988Z,1003.99
2018-05-08T03:44:39.365Z,1003.97
2018-05-08T03:45:19.792Z,1003.99
2018-05-08T03:46:00.213Z,1003.98
2018-05-08T03:46:40.618Z,1003.98
2018-05-08T03:47:21.067Z,1003.98
2018-05-08T03:48:01.472Z,1004
2018-05-08T03:48:41.866Z,1004
2018-05-08T03:49:22.261Z,1003.96
2018-05-08T03:50:02.667Z,1003.94
2018-05-08T03:50:43.093Z,1003.99
2018-05-08T03:51:23.547Z,1003.94
2018-05-08T03:52:03.890Z,1003.98
2018-05-08T03:52:44.247Z,1003.92
2018-05-08T03:53:24.650Z,1003.96
2018-05-08T03:54:05.051Z,1003.96
2018-05-08T03:54:45.388Z,1003.95
2018-05-08T03:55:25.805Z,1003.94
2018-05-08T03:56:06.241Z,1003.94
2018-05-08T03:56:46.599Z,1003.93
2018-05-08T03:57:27.080Z,1003.91
2018-05-08T03:59:54.797Z,1003.95
2018-05-08T04:00:35.253Z,1003.9
2018-05-08T04:01:15.671Z,1003.91
2018-05-08T04:01:56.063Z,1003.88
2018-05-08T04:41:46.481Z,1003.6
2018-05-08T04:42:26.785Z,1003.62
2018-05-08T04:43:07.234Z,1003.64
2018-05-08T04:43:47.658Z,1003.64
2018-05-08T04:44:28.082Z,1003.64
2018-05-08T04:45:08.463Z,1003.64
2018-05-08T04:45:48.942Z,1003.65
2018-05-08T04:46:29.262Z,1003.68
2018-05-08T04:47:09.694Z,1003.7
2018-05-08T04:47:50.162Z,1003.69
2018-05-08T04:48:30.645Z,1003.69
2018-05-08T04:49:11.062Z,1003.72
2018-05-08T04:49:51.547Z,1003.69
2018-05-08T04:50:32.096Z,1003.72
2018-05-08T04:51:12.605Z,1003.75
2018-05-08T04:51:53.012Z,1003.69
2018-05-08T04:54:05.978Z,1003.73
2018-05-08T04:54:46.364Z,1003.71
2018-05-08T04:57:01.443Z,1003.7
2018-05-08T04:57:42.094Z,1003.72
2018-05-08T04:58:22.452Z,1003.71
2018-05-08T04:59:02.864Z,1003.73
2018-05-08T04:59:43.418Z,1003.7
2018-05-08T05:00:23.830Z,1003.7
2018-05-08T05:01:04.236Z,1003.72
2018-05-08T05:01:44.759Z,1003.73
2018-05-08T05:02:25.090Z,1003.72
2018-05-08T05:03:05.499Z,1003.71
2018-05-08T05:03:45.892Z,1003.69
2018-05-08T05:04:26.336Z,1003.74
2018-05-08T05:05:06.761Z,1003.76
2018-05-08T05:05:47.157Z,1003.73
2018-05-08T05:06:27.725Z,1003.74
2018-05-08T05:07:08.262Z,1003.73
2018-05-08T05:07:48.621Z,1003.74
2018-05-08T05:08:29.114Z,1003.74
2018-05-08T05:09:09.494Z,1003.73
2018-05-08T05:09:49.887Z,1003.71
2018-05-08T05:10:30.281Z,1003.74
2018-05-08T05:11:10.776Z,1003.77
2018-05-08T05:11:51.154Z,1003.66
2018-05-08T05:12:31.620Z,1003.69
2018-05-08T05:13:11.998Z,1003.71
2018-05-08T05:13:52.554Z,1003.72
2018-05-08T05:14:33.318Z,1003.74
2018-05-08T05:15:13.656Z,1003.7
2018-05-08T05:15:54.077Z,1003.74
2018-05-08T05:16:34.576Z,1003.74
2018-05-08T05:17:14.986Z,1003.77
2018-05-08T05:17:55.435Z,1003.77
2018-05-08T05:18:35.849Z,1003.8
2018-05-08T05:19:16.379Z,1003.78
2018-05-08T05:19:56.827Z,1003.76
2018-05-08T05:20:37.484Z,1003.76
2018-05-08T05:21:18.125Z,1003.78
2018-05-08T05:21:59.119Z,1003.79
2018-05-08T05:22:39.944Z,1003.8
2018-05-08T05:23:20.609Z,1003.83
2018-05-08T05:24:01.208Z,1003.79
2018-05-08T05:24:41.965Z,1003.79
2018-05-08T05:25:22.251Z,1003.86
2018-05-08T05:26:02.726Z,1003.88
2018-05-08T05:26:43.260Z,1003.85
2018-05-08T05:27:24.670Z,1003.87
2018-05-08T05:28:05.137Z,1003.87
2018-05-08T05:28:45.567Z,1003.83
2018-05-08T05:29:27.927Z,1003.85
2018-05-08T05:30:09.720Z,1003.86
2018-05-08T05:30:50.147Z,1003.88
2018-05-08T05:31:30.588Z,1003.84
2018-05-08T05:32:11.042Z,1003.88
2018-05-08T05:32:51.439Z,1003.89
2018-05-08T05:33:31.873Z,1003.91
2018-05-08T05:34:12.707Z,1003.9
2018-05-08T05:36:40.828Z,1003.85
2018-05-08T05:37:22.245Z,1003.88
2018-05-08T05:38:02.681Z,1003.88
2018-05-08T05:38:43.818Z,1003.9
2018-05-08T05:39:24.318Z,1003.87
2018-05-08T05:40:04.743Z,1003.86
2018-05-08T05:40:45.386Z,1003.87
2018-05-08T05:41:25.801Z,1003.82
2018-05-08T05:42:06.221Z,1003.84
2018-05-08T05:42:46.585Z,1003.84
2018-05-08T05:43:27.002Z,1003.85
2018-05-08T05:44:07.479Z,1003.85
2018-05-08T05:44:47.898Z,1003.85
2018-05-08T05:45:28.292Z,1003.86
2018-05-08T05:46:08.821Z,1003.87
2018-05-08T05:46:49.361Z,1003.83
2018-05-08T05:47:29.738Z,1003.83
2018-05-08T05:48:10.238Z,1003.8
2018-05-08T05:48:50.957Z,1003.83
2018-05-08T05:49:31.381Z,1003.8
2018-05-08T05:50:11.822Z,1003.81
2018-05-08T05:50:52.395Z,1003.81
2018-05-08T05:51:32.889Z,1003.83
2018-05-08T05:52:13.589Z,1003.82
2018-05-08T05:52:54.024Z,1003.8
2018-05-08T05:53:34.390Z,1003.8
2018-05-08T05:54:14.830Z,1003.8
2018-05-08T05:56:30.482Z,1003.76
2018-05-08T05:57:10.931Z,1003.77
2018-05-08T05:57:51.344Z,1003.81
2018-05-08T05:58:31.775Z,1003.78
2018-05-08T05:59:12.210Z,1003.79
2018-05-08T05:59:52.632Z,1003.78
2018-05-08T06:00:33.027Z,1003.76
2018-05-08T06:01:13.543Z,1003.75
2018-05-08T06:01:53.846Z,1003.75
2018-05-08T06:02:34.334Z,1003.72
2018-05-08T06:03:14.811Z,1003.7
2018-05-08T06:03:55.209Z,1003.74
2018-05-08T06:04:35.636Z,1003.74
2018-05-08T06:05:16.065Z,1003.72
2018-05-08T06:05:56.678Z,1003.7
2018-05-08T06:06:38.520Z,1003.7
2018-05-08T06:07:18.478Z,1003.63
2018-05-08T06:08:00.268Z,1003.71
2018-05-08T06:08:42.933Z,1003.71
2018-05-08T06:09:25.144Z,1003.71
2018-05-08T06:10:05.582Z,1003.7
2018-05-08T06:10:46.080Z,1003.69
2018-05-08T06:11:29.970Z,1003.68
2018-05-08T06:12:11.302Z,1003.65
2018-05-08T06:12:51.745Z,1003.63
2018-05-08T06:13:32.224Z,1003.63
2018-05-08T06:14:12.839Z,1003.66
2018-05-08T06:14:53.439Z,1003.67
2018-05-08T06:15:33.907Z,1003.65
2018-05-08T06:16:14.413Z,1003.62
2018-05-08T06:16:55.106Z,1003.65
2018-05-08T06:17:39.046Z,1003.66
2018-05-08T06:18:20.123Z,1003.62
2018-05-08T06:19:02.991Z,1003.65
2018-05-08T06:19:43.794Z,1003.61
2018-05-08T06:20:24.227Z,1003.61
2018-05-08T06:21:04.752Z,1003.63
2018-05-08T06:21:45.162Z,1003.59
2018-05-08T06:22:25.667Z,1003.61
2018-05-08T06:23:07.106Z,1003.63
2018-05-08T06:23:47.719Z,1003.61
2018-05-08T06:24:28.205Z,1003.63
2018-05-08T06:25:08.714Z,1003.6
2018-05-08T06:25:49.157Z,1003.61
2018-05-08T06:26:29.788Z,1003.57
2018-05-08T06:27:10.198Z,1003.56
2018-05-08T06:27:50.725Z,1003.59
2018-05-08T06:28:31.554Z,1003.59
2018-05-08T06:29:12.852Z,1003.54
2018-05-08T06:30:07.998Z,1003.56
2018-05-08T06:30:48.841Z,1003.56
2018-05-08T06:31:28.918Z,1003.58
2018-05-08T06:32:09.458Z,1003.56
2018-05-08T06:32:49.888Z,1003.57
2018-05-08T06:33:30.319Z,1003.57
2018-05-08T06:34:10.748Z,1003.54
2018-05-08T06:34:51.172Z,1003.52
2018-05-08T06:35:32.207Z,1003.53
2018-05-08T06:36:12.634Z,1003.51
2018-05-08T06:36:53.038Z,1003.51
2018-05-08T06:37:33.475Z,1003.54
2018-05-08T06:38:13.932Z,1003.51
2018-05-08T06:38:54.604Z,1003.51
2018-05-08T06:39:36.511Z,1003.51
2018-05-08T06:40:17.140Z,1003.5
2018-05-08T06:42:23.193Z,1003.49
2018-05-08T06:43:10.237Z,1003.49
2018-05-08T06:43:50.663Z,1003.48
2018-05-08T06:45:15.328Z,1003.44
2018-05-08T06:49:34.092Z,1003.43
2018-05-08T06:50:14.482Z,1003.44
2018-05-08T06:50:54.888Z,1003.43
2018-05-08T06:51:35.321Z,1003.43
2018-05-08T06:52:15.793Z,1003.41
2018-05-08T06:52:56.245Z,1003.39
2018-05-08T06:53:36.820Z,1003.4
2018-05-08T06:54:19.110Z,1003.44
2018-05-08T06:54:59.815Z,1003.41
2018-05-08T06:55:40.079Z,1003.39
2018-05-08T06:56:20.422Z,1003.38
2018-05-08T06:57:00.846Z,1003.42
2018-05-08T06:57:41.254Z,1003.4
2018-05-08T06:58:21.691Z,1003.4
2018-05-08T06:59:02.117Z,1003.39
2018-05-08T06:59:42.638Z,1003.41
2018-05-08T07:00:22.974Z,1003.38
2018-05-08T07:01:03.420Z,1003.36
2018-05-08T07:01:43.868Z,1003.4
2018-05-08T07:02:24.617Z,1003.39
2018-05-08T07:03:04.961Z,1003.42
2018-05-08T07:03:45.597Z,1003.39
2018-05-08T07:04:26.062Z,1003.4
2018-05-08T07:05:06.504Z,1003.38
2018-05-08T07:05:46.919Z,1003.36
2018-05-08T07:06:27.315Z,1003.36
2018-05-08T07:07:07.760Z,1003.36
2018-05-08T07:07:48.200Z,1003.35
2018-05-08T07:08:28.861Z,1003.3
2018-05-08T07:09:09.415Z,1003.34
2018-05-08T07:09:49.789Z,1003.34
2018-05-08T07:10:30.208Z,1003.3
2018-05-08T07:11:11.125Z,1003.29
2018-05-08T07:11:51.417Z,1003.26
2018-05-08T07:12:33.048Z,1003.3
2018-05-08T07:13:12.659Z,1003.33
2018-05-08T07:13:53.332Z,1003.26
2018-05-08T07:14:33.830Z,1003.25
2018-05-08T07:15:14.256Z,1003.27
2018-05-08T07:15:54.727Z,1003.24
2018-05-08T07:16:35.070Z,1003.27
2018-05-08T07:17:15.449Z,1003.25
2018-05-08T07:17:56.008Z,1003.29
2018-05-08T07:18:36.516Z,1003.25
2018-05-08T07:19:16.950Z,1003.26
2018-05-08T07:19:57.433Z,1003.28
2018-05-08T07:20:37.938Z,1003.24
2018-05-08T07:21:18.507Z,1003.21
2018-05-08T07:21:58.946Z,1003.22
2018-05-08T07:22:39.399Z,1003.17
2018-05-08T07:23:19.864Z,1003.17
2018-05-08T07:24:00.368Z,1003.22
2018-05-08T07:24:41.998Z,1003.18
2018-05-08T07:25:22.380Z,1003.16
2018-05-08T07:26:02.827Z,1003.16
2018-05-08T07:26:43.301Z,1003.13
2018-05-08T07:27:23.855Z,1003.16
2018-05-08T07:28:04.326Z,1003.17
2018-05-08T07:28:44.803Z,1003.1
2018-05-08T07:29:25.279Z,1003.1
2018-05-08T07:30:05.971Z,1003.08
2018-05-08T07:30:46.367Z,1003.1
2018-05-08T07:31:26.941Z,1003.14
2018-05-08T07:32:07.488Z,1003.14
2018-05-08T07:32:49.354Z,1003.1
2018-05-08T07:33:30.308Z,1003.12
2018-05-08T07:34:11.020Z,1003.05
2018-05-08T07:34:56.311Z,1003.12
2018-05-08T07:35:36.169Z,1003.12
2018-05-08T07:36:16.585Z,1003.09
2018-05-08T07:36:57.018Z,1003.14
2018-05-08T07:37:37.471Z,1003.12
2018-05-08T07:38:18.096Z,1003.15
2018-05-08T07:38:58.390Z,1003.1
2018-05-08T07:39:38.836Z,1003.1
2018-05-08T07:40:19.300Z,1003.09
2018-05-08T07:40:59.758Z,1003.11
2018-05-08T07:41:40.127Z,1003.12
2018-05-08T07:42:20.781Z,1003.12
2018-05-08T07:43:01.222Z,1003.1
2018-05-08T07:43:41.806Z,1003.1
2018-05-08T07:44:22.321Z,1003.13
2018-05-08T07:45:02.834Z,1003.12
2018-05-08T07:45:43.317Z,1003.11
2018-05-08T07:46:23.791Z,1003.13
2018-05-08T07:47:04.341Z,1003.13
2018-05-08T07:47:44.745Z,1003.14
2018-05-08T07:48:25.161Z,1003.15
2018-05-08T07:49:05.648Z,1003.13
2018-05-08T07:49:47.914Z,1003.18
2018-05-08T07:50:29.068Z,1003.17
2018-05-08T07:51:10.637Z,1003.17
2018-05-08T07:51:51.244Z,1003.21
2018-05-08T07:52:32.452Z,1003.14
2018-05-08T07:53:12.925Z,1003.18
2018-05-08T07:53:53.292Z,1003.14
2018-05-08T07:54:33.766Z,1003.16
2018-05-08T07:55:14.224Z,1003.13
2018-05-08T07:55:54.733Z,1003.14
2018-05-08T07:56:35.168Z,1003.11
2018-05-08T07:57:15.746Z,1003.15
2018-05-08T07:57:56.462Z,1003.14
2018-05-08T07:58:36.667Z,1003.14
2018-05-08T07:59:17.156Z,1003.1
2018-05-08T07:59:57.662Z,1003.12
2018-05-08T08:00:38.445Z,1003.07
2018-05-08T08:01:18.836Z,1003.13
2018-05-08T08:01:59.242Z,1003.11
2018-05-08T08:02:39.826Z,1003.17
2018-05-08T08:03:20.332Z,1003.09
2018-05-08T08:04:00.881Z,1003.06
2018-05-08T08:04:41.340Z,1003.08
2018-05-08T08:05:24.598Z,1003.07
2018-05-08T08:06:05.611Z,1003.11
2018-05-08T08:06:46.151Z,1003.05
2018-05-08T08:07:29.418Z,1003.06
2018-05-08T08:08:09.865Z,1003.08
2018-05-08T08:08:50.296Z,1003.02
2018-05-08T08:09:30.736Z,1003.01
2018-05-08T08:10:11.241Z,1003.08
2018-05-08T08:10:51.635Z,1003.09
2018-05-08T08:11:32.350Z,1003.07
2018-05-08T08:12:12.566Z,1003.08
2018-05-08T08:12:53.094Z,1003.06
2018-05-08T08:13:33.553Z,1003.09
2018-05-08T08:14:14.008Z,1003.06
2018-05-08T08:14:55.177Z,1003.07
2018-05-08T08:15:35.769Z,1003.1
2018-05-08T08:16:17.146Z,1003.06
2018-05-08T08:16:57.918Z,1003.03
2018-05-08T08:17:38.442Z,1003.08
2018-05-08T08:18:18.841Z,1003.08
2018-05-08T08:18:59.365Z,1003.05
2018-05-08T08:19:40.707Z,1003.05
2018-05-08T08:20:21.131Z,1003.03
2018-05-08T08:21:02.920Z,1003.03
2018-05-08T08:21:43.442Z,1002.97
2018-05-08T08:22:23.965Z,1003.02
2018-05-08T08:23:05.327Z,1003.04
2018-05-08T08:23:46.066Z,1003.04
2018-05-08T08:24:26.515Z,1002.97
2018-05-08T08:25:07.100Z,1003.02
2018-05-08T08:25:47.474Z,1003.02
2018-05-08T08:26:27.916Z,1002.99
2018-05-08T08:27:08.550Z,1003.01
2018-05-08T08:27:48.988Z,1002.98
2018-05-08T08:28:29.577Z,1003.02
2018-05-08T08:29:10.052Z,1003
2018-05-08T08:29:51.385Z,1002.96
2018-05-08T08:30:32.444Z,1002.97
2018-05-08T08:31:13.362Z,1002.96
2018-05-08T08:31:53.135Z,1002.97
2018-05-08T08:32:33.595Z,1002.95
2018-05-08T08:33:14.073Z,1002.97
2018-05-08T08:33:54.523Z,1002.91
2018-05-08T08:34:35.096Z,1002.94
2018-05-08T08:35:16.012Z,1002.93
2018-05-08T08:36:00.932Z,1002.88
2018-05-08T08:36:40.734Z,1002.93
2018-05-08T08:37:21.658Z,1002.96
2018-05-08T08:38:02.996Z,1002.9
2018-05-08T08:38:44.131Z,1002.89
2018-05-08T08:39:24.204Z,1002.86
2018-05-08T08:40:04.613Z,1002.89
2018-05-08T08:40:45.300Z,1002.89
2018-05-08T08:41:25.630Z,1002.83
2018-05-08T08:42:06.442Z,1002.86
2018-05-08T08:42:46.980Z,1002.82
2018-05-08T08:43:27.517Z,1002.83
2018-05-08T08:44:07.987Z,1002.77
2018-05-08T08:44:50.126Z,1002.85
2018-05-08T08:45:30.316Z,1002.81
2018-05-08T08:46:11.498Z,1002.85
2018-05-08T08:46:52.067Z,1002.81
2018-05-08T08:47:32.734Z,1002.8
2018-05-08T08:48:13.404Z,1002.83
2018-05-08T08:48:54.092Z,1002.8
2018-05-08T08:49:35.644Z,1002.79
2018-05-08T08:50:16.756Z,1002.78
2018-05-08T08:50:58.002Z,1002.76
2018-05-08T08:51:39.209Z,1002.78
2018-05-08T08:52:20.247Z,1002.73
2018-05-08T08:53:01.378Z,1002.77
2018-05-08T08:53:41.808Z,1002.75
2018-05-08T08:54:22.656Z,1002.76
2018-05-08T08:55:03.220Z,1002.77
2018-05-08T08:55:43.782Z,1002.75
2018-05-08T08:56:24.272Z,1002.71
2018-05-08T08:57:04.816Z,1002.73
2018-05-08T08:57:45.202Z,1002.74
2018-05-08T08:58:25.737Z,1002.73
2018-05-08T08:59:06.210Z,1002.65
2018-05-08T08:59:47.693Z,1002.72
2018-05-08T09:00:30.141Z,1002.68
2018-05-08T09:01:09.389Z,1002.66
2018-05-08T09:01:50.048Z,1002.67
2018-05-08T09:02:30.504Z,1002.67
2018-05-08T09:03:11.306Z,1002.63
2018-05-08T09:03:51.748Z,1002.62
2018-05-08T09:04:32.199Z,1002.61
2018-05-08T09:05:13.037Z,1002.6
2018-05-08T09:05:54.343Z,1002.61
2018-05-08T09:06:35.012Z,1002.59
2018-05-08T09:07:15.461Z,1002.59
2018-05-08T09:07:56.049Z,1002.63
2018-05-08T09:08:36.573Z,1002.6
2018-05-08T09:09:17.486Z,1002.61
2018-05-08T09:09:57.964Z,1002.62
2018-05-08T09:10:39.426Z,1002.58
2018-05-08T09:11:19.744Z,1002.58
2018-05-08T09:12:00.210Z,1002.59
2018-05-08T09:12:40.673Z,1002.55
2018-05-08T09:13:21.098Z,1002.55
2018-05-08T09:14:01.600Z,1002.63
2018-05-08T09:14:42.106Z,1002.55
2018-05-08T09:15:22.518Z,1002.55
2018-05-08T09:16:02.970Z,1002.55
2018-05-08T09:16:43.491Z,1002.55
2018-05-08T09:17:23.985Z,1002.52
2018-05-08T09:18:04.471Z,1002.51
2018-05-08T09:18:45.865Z,1002.49
2018-05-08T09:19:25.799Z,1002.51
2018-05-08T09:20:06.288Z,1002.49
2018-05-08T09:20:46.745Z,1002.51
2018-05-08T09:21:27.520Z,1002.48
2018-05-08T09:22:08.155Z,1002.52
2018-05-08T09:22:48.534Z,1002.47
2018-05-08T09:23:29.018Z,1002.46
2018-05-08T09:24:09.697Z,1002.5